createdAt,value
2019-05-23T00:01:57.261Z,100271.61
2019-05-23T00:04:28.386Z,100270.65
2019-05-23T00:06:59.862Z,100264.77
2019-05-23T00:09:30.915Z,100268.73
2019-05-23T00:12:18.013Z,100275.74
2019-05-23T00:14:53.521Z,100277.09
2019-05-23T00:17:24.183Z,100279.63
2019-05-23T00:19:53.660Z,100280.48
2019-05-23T00:22:23.139Z,100278.08
2019-05-23T00:24:53.623Z,100274.48
2019-05-23T00:27:23.835Z,100272.98
2019-05-23T00:29:54.965Z,100269.77
2019-05-23T00:32:29.863Z,100269.45
2019-05-23T00:34:59.319Z,100272.95
2019-05-23T00:37:30.154Z,100274.69
2019-05-23T00:39:59.867Z,100274.69
2019-05-23T00:42:31.552Z,100281.55
2019-05-23T00:45:01.671Z,100279.78
2019-05-23T00:47:31.619Z,100280.06
2019-05-23T00:50:03.029Z,100282.11
2019-05-23T00:52:33.378Z,100283.40
2019-05-23T00:55:04.965Z,100287.50
2019-05-23T00:57:35.873Z,100286.15
2019-05-23T01:00:11.886Z,100294.02
2019-05-23T01:02:42.977Z,100292.14
2019-05-23T01:05:13.332Z,100301.94
2019-05-23T01:07:44.530Z,100297.20
2019-05-23T01:10:16.601Z,100300.70
2019-05-23T01:12:46.717Z,100305.06
2019-05-23T01:15:18.996Z,100306.09
2019-05-23T01:17:50.071Z,100302.69
2019-05-23T01:20:24.384Z,100310.76
2019-05-23T01:22:55.668Z,100302.55
2019-05-23T01:25:25.823Z,100307.16
2019-05-23T01:27:55.900Z,100308.00
2019-05-23T01:30:45.033Z,100303.91
2019-05-23T01:33:15.336Z,100303.69
2019-05-23T01:35:46.050Z,100298.23
2019-05-23T01:38:16.144Z,100296.68
2019-05-23T01:40:46.130Z,100296.47
2019-05-23T01:43:16.035Z,100305.11
2019-05-23T01:45:46.377Z,100296.19
2019-05-23T01:48:16.101Z,100296.58
2019-05-23T01:50:46.436Z,100299.34
2019-05-23T01:53:16.632Z,100299.83
2019-05-23T01:55:46.921Z,100300.69
2019-05-23T01:58:16.544Z,100300.83
2019-05-23T02:00:47.698Z,100301.18
2019-05-23T02:03:17.179Z,100300.69
2019-05-23T02:05:46.923Z,100304.86
2019-05-23T02:08:16.681Z,100300.69
2019-05-23T02:10:46.935Z,100304.29
2019-05-23T02:13:16.481Z,100297.14
2019-05-23T02:15:47.322Z,100302.52
2019-05-23T02:18:18.833Z,100304.98
2019-05-23T02:20:48.567Z,100301.31
2019-05-23T02:23:19.784Z,100298.63
2019-05-23T02:25:50.034Z,100305.27
2019-05-23T02:28:20.468Z,100298.05
2019-05-23T02:30:50.602Z,100300.73
2019-05-23T02:33:20.393Z,100307.23
2019-05-23T02:35:49.851Z,100303.48
2019-05-23T02:38:37.131Z,100303.48
2019-05-23T02:41:08.818Z,100308.47
2019-05-23T02:43:40.204Z,100302.44
2019-05-23T02:46:12.899Z,100308.50
2019-05-23T02:48:43.735Z,100311.06
2019-05-23T02:51:16.824Z,100309.91
2019-05-23T02:53:49.546Z,100310.95
2019-05-23T02:56:18.964Z,100311.17
2019-05-23T02:59:10.900Z,100307.41
2019-05-23T03:02:21.414Z,100307.55
2019-05-23T03:04:52.749Z,100306.25
2019-05-23T03:07:23.544Z,100312.16
2019-05-23T03:09:53.195Z,100310.91
2019-05-23T03:12:25.282Z,100319.55
2019-05-23T03:14:55.305Z,100317.44
2019-05-23T03:17:26.469Z,100312.70
2019-05-23T03:20:02.238Z,100320.34
2019-05-23T03:22:36.145Z,100315.42
2019-05-23T03:25:30.089Z,100314.13
2019-05-23T03:27:59.650Z,100312.43
2019-05-23T03:30:33.518Z,100308.70
2019-05-23T03:33:04.826Z,100309.61
2019-05-23T03:35:36.326Z,100304.59
2019-05-23T03:38:05.917Z,100307.63
2019-05-23T03:40:36.392Z,100308.84
2019-05-23T03:43:08.612Z,100306.51
2019-05-23T03:45:52.454Z,100309.20
2019-05-23T03:48:23.564Z,100303.06
2019-05-23T03:50:54.650Z,100300.59
2019-05-23T03:53:25.524Z,100302.92
2019-05-23T03:55:57.692Z,100297.27
2019-05-23T03:58:29.950Z,100298.20
2019-05-23T04:01:01.075Z,100304.78
2019-05-23T04:03:30.543Z,100302.99
2019-05-23T04:06:00.529Z,100304.06
2019-05-23T04:08:30.423Z,100303.84
2019-05-23T04:11:00.512Z,100307.95
2019-05-23T04:13:30.615Z,100314.97
2019-05-23T04:16:00.659Z,100315.73
2019-05-23T04:18:30.877Z,100314.11
2019-05-23T04:21:00.439Z,100309.59
2019-05-23T04:23:30.386Z,100315.32
2019-05-23T04:26:00.115Z,100310.99
2019-05-23T04:28:29.599Z,100313.20
2019-05-23T04:30:59.380Z,100319.22
2019-05-23T04:33:29.322Z,100317.66
2019-05-23T04:35:58.959Z,100320.07
2019-05-23T04:38:28.514Z,100317.66
2019-05-23T04:40:58.158Z,100325.42
2019-05-23T04:43:28.224Z,100332.77
2019-05-23T04:45:58.217Z,100331.92
2019-05-23T04:48:28.472Z,100335.41
2019-05-23T04:51:00.228Z,100331.09
2019-05-23T04:53:29.640Z,100333.36
2019-05-23T04:55:59.474Z,100332.64
2019-05-23T04:58:30.213Z,100331.31
2019-05-23T05:01:00.729Z,100337.91
2019-05-23T05:03:31.432Z,100333.48
2019-05-23T05:06:01.083Z,100328.68
2019-05-23T05:08:30.744Z,100341.61
2019-05-23T05:11:00.911Z,100342.34
2019-05-23T05:13:30.826Z,100341.55
2019-05-23T05:16:00.378Z,100343.52
2019-05-23T05:18:30.151Z,100344.59
2019-05-23T05:21:00.009Z,100352.22
2019-05-23T05:23:29.490Z,100353.68
2019-05-23T05:25:59.033Z,100354.58
2019-05-23T05:28:29.044Z,100362.70
2019-05-23T05:30:58.682Z,100361.69
2019-05-23T05:33:28.343Z,100355.33
2019-05-23T05:35:57.992Z,100356.25
2019-05-23T05:38:28.869Z,100363.28
2019-05-23T05:40:59.578Z,100367.38
2019-05-23T05:43:29.685Z,100361.14
2019-05-23T05:46:00.109Z,100367.52
2019-05-23T05:48:30.409Z,100370.42
2019-05-23T05:50:59.927Z,100366.13
2019-05-23T05:53:29.870Z,100371.30
2019-05-23T05:55:59.428Z,100369.23
2019-05-23T05:58:28.893Z,100372.97
2019-05-23T06:01:00.249Z,100371.66
2019-05-23T06:03:29.865Z,100372.20
2019-05-23T06:06:04.726Z,100368.63
2019-05-23T06:08:35.890Z,100372.71
2019-05-23T06:11:05.554Z,100370.59
2019-05-23T06:13:35.113Z,100374.45
2019-05-23T06:16:05.317Z,100374.78
2019-05-23T06:18:34.768Z,100370.80
2019-05-23T06:21:05.012Z,100369.77
2019-05-23T06:23:34.737Z,100375.99
2019-05-23T06:26:04.308Z,100366.36
2019-05-23T06:28:33.844Z,100368.45
2019-05-23T06:31:03.799Z,100367.87
2019-05-23T06:33:34.207Z,100367.87
2019-05-23T06:36:03.877Z,100369.59
2019-05-23T06:38:33.402Z,100366.53
2019-05-23T06:41:04.324Z,100373.87
2019-05-23T06:43:35.337Z,100367.55
2019-05-23T06:46:04.961Z,100374.36
2019-05-23T06:48:34.933Z,100366.95
2019-05-23T06:51:04.689Z,100371.76
2019-05-23T06:53:34.311Z,100367.60
2019-05-23T06:56:04.483Z,100363.44
2019-05-23T06:58:33.945Z,100358.67
2019-05-23T07:01:03.949Z,100363.70
2019-05-23T07:03:42.649Z,100363.84
2019-05-23T07:06:05.335Z,100366.11
2019-05-23T07:08:34.804Z,100361.25
2019-05-23T07:11:04.418Z,100369.66
2019-05-23T07:13:34.943Z,100362.81
2019-05-23T07:16:05.005Z,100368.17
2019-05-23T07:18:34.572Z,100364.06
2019-05-23T07:21:04.657Z,100363.80
2019-05-23T07:23:34.185Z,100356.19
2019-05-23T07:26:03.807Z,100357.70
2019-05-23T07:28:33.451Z,100362.83
2019-05-23T07:31:03.495Z,100376.53
2019-05-23T07:33:33.110Z,100380.39
2019-05-23T07:36:03.328Z,100374.66
2019-05-23T07:38:32.839Z,100386.06
2019-05-23T07:41:02.829Z,100382.07
2019-05-23T07:43:32.578Z,100372.92
2019-05-23T07:46:02.892Z,100375.34
2019-05-23T07:48:32.393Z,100380.79
2019-05-23T07:51:01.836Z,100389.37
2019-05-23T07:53:32.952Z,100383.97
2019-05-23T07:56:03.853Z,100383.65
2019-05-23T07:58:33.601Z,100382.70
2019-05-23T08:01:07.318Z,100390.41
2019-05-23T08:03:39.811Z,100386.07
2019-05-23T08:06:09.473Z,100380.59
2019-05-23T08:08:39.002Z,100385.33
2019-05-23T08:11:08.513Z,100369.82
2019-05-23T08:13:38.603Z,100361.63
2019-05-23T08:16:08.067Z,100363.16
2019-05-23T08:18:37.708Z,100358.31
2019-05-23T08:21:07.275Z,100340.19
2019-05-23T08:23:37.264Z,100356.74
2019-05-23T08:26:06.979Z,100345.80
2019-05-23T08:28:36.721Z,100351.90
2019-05-23T08:31:06.742Z,100353.28
2019-05-23T08:33:36.474Z,100363.86
2019-05-23T08:36:06.418Z,100362.30
2019-05-23T08:38:36.286Z,100370.93
2019-05-23T08:41:06.759Z,100362.82
2019-05-23T08:43:36.245Z,100357.95
2019-05-23T08:46:06.773Z,100359.09
2019-05-23T08:48:36.507Z,100356.00
2019-05-23T08:51:06.220Z,100356.36
2019-05-23T08:53:35.960Z,100357.93
2019-05-23T08:56:17.991Z,100355.04
2019-05-23T08:58:36.606Z,100361.52
2019-05-23T09:01:07.000Z,100352.78
2019-05-23T09:03:37.313Z,100357.86
2019-05-23T09:06:07.156Z,100370.41
2019-05-23T09:08:36.625Z,100366.09
2019-05-23T09:11:06.087Z,100361.71
2019-05-23T09:13:35.564Z,100343.93
2019-05-23T09:16:05.191Z,100349.39
2019-05-23T09:18:34.724Z,100346.34
2019-05-23T09:21:04.925Z,100340.52
2019-05-23T09:23:34.418Z,100351.98
2019-05-23T09:26:04.044Z,100350.98
2019-05-23T09:28:33.578Z,100349.26
2019-05-23T09:31:04.013Z,100345.63
2019-05-23T09:33:33.486Z,100343.30
2019-05-23T09:36:03.139Z,100333.03
2019-05-23T09:38:32.605Z,100338.50
2019-05-23T09:41:02.106Z,100338.76
2019-05-23T09:43:31.559Z,100334.70
2019-05-23T09:46:01.151Z,100339.58
2019-05-23T09:48:31.079Z,100333.33
2019-05-23T09:51:00.798Z,100333.06
2019-05-23T09:53:30.668Z,100338.06
2019-05-23T09:56:00.121Z,100332.73
2019-05-23T09:58:29.613Z,100331.39
2019-05-23T10:00:59.135Z,100329.03
2019-05-23T10:03:28.947Z,100329.73
2019-05-23T10:05:58.415Z,100334.20
2019-05-23T10:08:27.913Z,100335.16
2019-05-23T10:10:57.377Z,100335.25
2019-05-23T10:13:38.660Z,100337.61
2019-05-23T10:16:03.449Z,100327.98
2019-05-23T10:18:33.038Z,100330.74
2019-05-23T10:21:02.494Z,100322.48
2019-05-23T10:23:32.817Z,100326.77
2019-05-23T10:26:02.443Z,100329.70
2019-05-23T10:28:32.216Z,100331.66
2019-05-23T10:31:01.679Z,100332.30
2019-05-23T10:33:31.148Z,100336.86
2019-05-23T10:36:01.378Z,100328.97
2019-05-23T10:38:31.185Z,100336.63
2019-05-23T10:41:00.687Z,100329.83
2019-05-23T10:43:30.126Z,100325.39
2019-05-23T10:45:59.620Z,100321.38
2019-05-23T10:48:30.705Z,100327.35
2019-05-23T10:51:00.619Z,100321.09
2019-05-23T10:53:30.406Z,100314.91
2019-05-23T10:55:59.975Z,100306.13
2019-05-23T10:58:29.913Z,100305.43
2019-05-23T11:00:59.388Z,100310.25
2019-05-23T11:03:28.904Z,100301.28
2019-05-23T11:06:14.471Z,100305.61
2019-05-23T11:08:30.762Z,100303.70
2019-05-23T11:11:00.472Z,100298.02
2019-05-23T11:13:30.540Z,100299.19
2019-05-23T11:16:00.314Z,100299.56
2019-05-23T11:18:30.121Z,100295.88
2019-05-23T11:20:59.597Z,100290.98
2019-05-23T11:23:30.688Z,100304.11
2019-05-23T11:26:01.557Z,100311.73
2019-05-23T11:28:33.306Z,100299.48
2019-05-23T11:31:03.386Z,100283.94
2019-05-23T11:33:32.867Z,100285.02
2019-05-23T11:36:02.707Z,100275.31
2019-05-23T11:38:32.409Z,100289.72
2019-05-23T11:41:02.224Z,100284.52
2019-05-23T11:43:31.746Z,100288.96
2019-05-23T11:46:02.931Z,100289.11
2019-05-23T11:48:33.128Z,100279.22
2019-05-23T11:51:03.166Z,100277.80
2019-05-23T11:53:32.680Z,100277.60
2019-05-23T11:56:02.468Z,100274.27
2019-05-23T11:58:32.940Z,100275.27
2019-05-23T12:01:11.036Z,100273.33
2019-05-23T12:03:41.556Z,100270.69
2019-05-23T12:06:11.102Z,100269.58
2019-05-23T12:08:40.645Z,100271.58
2019-05-23T12:11:10.382Z,100270.42
2019-05-23T12:13:39.841Z,100263.52
2019-05-23T12:16:10.907Z,100263.23
2019-05-23T12:18:40.433Z,100254.69
2019-05-23T12:21:10.081Z,100251.98
2019-05-23T12:23:39.599Z,100262.44
2019-05-23T12:26:09.072Z,100261.76
2019-05-23T12:28:38.562Z,100250.17
2019-05-23T12:31:08.276Z,100244.88
2019-05-23T12:33:37.730Z,100257.57
2019-05-23T12:36:07.201Z,100249.25
2019-05-23T12:38:36.676Z,100257.25
2019-05-23T12:41:07.570Z,100244.86
2019-05-23T12:43:37.105Z,100245.14
2019-05-23T12:46:06.641Z,100247.92
2019-05-23T12:48:47.078Z,100244.89
2019-05-23T12:51:20.785Z,100251.70
2019-05-23T12:53:50.246Z,100241.09
2019-05-23T12:56:19.702Z,100235.99
2019-05-23T12:58:49.162Z,100235.34
2019-05-23T13:01:18.659Z,100231.03
2019-05-23T13:03:48.111Z,100231.25
2019-05-23T13:06:17.656Z,100229.84
2019-05-23T13:08:47.130Z,100232.35
2019-05-23T13:11:17.039Z,100233.31
2019-05-23T13:13:46.489Z,100226.38
2019-05-23T13:16:15.952Z,100219.69
2019-05-23T13:18:45.755Z,100222.70
2019-05-23T13:21:15.277Z,100215.36
2019-05-23T13:23:44.892Z,100210.17
2019-05-23T13:26:14.359Z,100210.54
2019-05-23T13:28:43.915Z,100206.75
2019-05-23T13:31:13.367Z,100208.58
2019-05-23T13:33:43.113Z,100214.70
2019-05-23T13:36:12.559Z,100211.58
2019-05-23T13:38:42.429Z,100208.03
2019-05-23T13:41:11.895Z,100208.28
2019-05-23T13:43:41.363Z,100203.59
2019-05-23T13:46:11.354Z,100191.16
2019-05-23T13:48:41.093Z,100201.90
2019-05-23T13:51:10.543Z,100209.84
2019-05-23T13:53:40.013Z,100211.00
2019-05-23T13:56:09.471Z,100203.16
2019-05-23T13:58:39.014Z,100198.84
2019-05-23T14:01:09.832Z,100195.23
2019-05-23T14:03:40.243Z,100190.67
2019-05-23T14:06:09.863Z,100186.30
2019-05-23T14:08:39.328Z,100198.24
2019-05-23T14:11:08.945Z,100197.13
2019-05-23T14:13:38.861Z,100204.88
2019-05-23T14:16:09.412Z,100194.03
2019-05-23T14:18:39.357Z,100188.84
2019-05-23T14:21:09.167Z,100186.73
2019-05-23T14:23:38.634Z,100184.94
2019-05-23T14:26:08.999Z,100180.33
2019-05-23T14:28:38.737Z,100174.72
2019-05-23T14:31:15.935Z,100174.52
2019-05-23T14:33:55.807Z,100177.37
2019-05-23T14:36:32.327Z,100178.80
2019-05-23T14:39:02.702Z,100180.73
2019-05-23T14:41:44.915Z,100179.28
2019-05-23T14:44:05.282Z,100177.80
2019-05-23T14:46:39.141Z,100178.92
2019-05-23T14:49:16.246Z,100174.12
2019-05-23T14:51:47.414Z,100162.23
2019-05-23T14:54:33.275Z,100162.63
2019-05-23T14:57:03.076Z,100167.34
2019-05-23T14:59:32.882Z,100167.06
2019-05-23T15:02:03.197Z,100166.08
2019-05-23T15:04:32.658Z,100169.22
2019-05-23T15:07:02.735Z,100165.02
2019-05-23T15:09:32.832Z,100164.53
2019-05-23T15:12:02.331Z,100173.30
2019-05-23T15:14:31.789Z,100170.91
2019-05-23T15:17:01.253Z,100173.92
2019-05-23T15:19:41.911Z,100181.51
2019-05-23T15:22:02.240Z,100179.39
2019-05-23T15:24:35.126Z,100179.52
2019-05-23T15:27:04.975Z,100183.83
2019-05-23T15:29:34.529Z,100184.70
2019-05-23T15:32:04.044Z,100186.19
2019-05-23T15:34:35.111Z,100179.42
2019-05-23T15:37:05.232Z,100176.09
2019-05-23T15:39:35.446Z,100174.75
2019-05-23T15:42:05.152Z,100178.48
2019-05-23T15:44:34.744Z,100174.70
2019-05-23T15:47:04.781Z,100173.20
2019-05-23T15:49:34.905Z,100175.02
2019-05-23T15:52:14.895Z,100172.09
2019-05-23T15:54:55.131Z,100170.26
2019-05-23T15:57:32.438Z,100164.88
2019-05-23T16:00:09.254Z,100170.09
2019-05-23T16:02:49.406Z,100168.44
2019-05-23T16:05:19.494Z,100171.59
2019-05-23T16:07:50.216Z,100169.63
2019-05-23T16:10:20.534Z,100169.91
2019-05-23T16:12:50.099Z,100174.11
2019-05-23T16:15:19.694Z,100168.00
2019-05-23T16:17:49.139Z,100170.73
2019-05-23T16:20:19.504Z,100162.73
2019-05-23T16:22:49.077Z,100164.95
2019-05-23T16:25:18.922Z,100166.29
2019-05-23T16:27:49.014Z,100165.25
2019-05-23T16:30:18.533Z,100163.67
2019-05-23T16:32:48.064Z,100168.40
2019-05-23T16:35:17.596Z,100164.45
2019-05-23T16:37:47.010Z,100161.56
2019-05-23T16:40:16.693Z,100155.80
2019-05-23T16:42:46.163Z,100161.58
2019-05-23T16:45:15.800Z,100157.97
2019-05-23T16:47:45.306Z,100161.27
2019-05-23T16:50:15.288Z,100155.55
2019-05-23T16:52:44.845Z,100158.93
2019-05-23T16:55:17.872Z,100158.77
2019-05-23T16:57:50.636Z,100156.14
2019-05-23T17:00:37.639Z,100154.30
2019-05-23T17:03:11.198Z,100167.83
2019-05-23T17:05:45.276Z,100162.30
2019-05-23T17:08:22.187Z,100156.72
2019-05-23T17:11:02.281Z,100157.08
2019-05-23T17:13:42.338Z,100155.80
2019-05-23T17:16:13.524Z,100158.08
2019-05-23T17:18:50.452Z,100158.96
2019-05-23T17:21:24.268Z,100159.55
2019-05-23T17:23:58.364Z,100158.46
2019-05-23T17:26:29.497Z,100166.58
2019-05-23T17:29:01.293Z,100166.08
2019-05-23T17:31:32.729Z,100160.02
2019-05-23T17:34:02.196Z,100161.17
2019-05-23T17:36:32.063Z,100165.38
2019-05-23T17:39:01.897Z,100168.73
2019-05-23T17:41:31.374Z,100167.92
2019-05-23T17:44:01.101Z,100166.22
2019-05-23T17:46:30.728Z,100164.09
2019-05-23T17:49:00.454Z,100171.33
2019-05-23T17:51:29.913Z,100167.27
2019-05-23T17:53:59.636Z,100165.84
2019-05-23T17:56:29.434Z,100166.90
2019-05-23T17:58:58.890Z,100160.11
2019-05-23T18:01:29.910Z,100165.70
2019-05-23T18:03:59.532Z,100162.91
2019-05-23T18:06:28.987Z,100161.82
2019-05-23T18:08:58.636Z,100166.98
2019-05-23T18:11:28.125Z,100159.89
2019-05-23T18:13:57.978Z,100166.50
2019-05-23T18:16:27.726Z,100164.94
2019-05-23T18:18:57.266Z,100173.13
2019-05-23T18:21:26.811Z,100166.36
2019-05-23T18:23:56.350Z,100162.51
2019-05-23T18:26:26.548Z,100166.45
2019-05-23T18:28:56.417Z,100166.17
2019-05-23T18:31:27.519Z,100173.17
2019-05-23T18:33:57.999Z,100171.50
2019-05-23T18:36:27.999Z,100172.85
2019-05-23T18:38:57.479Z,100181.38
2019-05-23T18:41:27.842Z,100184.23
2019-05-23T18:43:57.793Z,100191.89
2019-05-23T18:46:31.576Z,100186.80
2019-05-23T18:49:02.189Z,100185.91
2019-05-23T18:51:32.089Z,100184.03
2019-05-23T18:54:02.078Z,100192.70
2019-05-23T18:56:31.578Z,100192.66
2019-05-23T18:59:01.821Z,100198.16
2019-05-23T19:01:32.795Z,100200.75
2019-05-23T19:04:02.611Z,100200.31
2019-05-23T19:06:32.267Z,100201.73
2019-05-23T19:09:02.127Z,100211.23
2019-05-23T19:11:31.920Z,100213.83
2019-05-23T19:14:01.547Z,100211.43
2019-05-23T19:16:33.000Z,100211.30
2019-05-23T19:19:03.552Z,100214.86
2019-05-23T19:21:34.361Z,100214.00
2019-05-23T19:24:04.798Z,100216.37
2019-05-23T19:26:35.034Z,100218.73
2019-05-23T19:29:06.816Z,100243.39
2019-05-23T19:31:36.325Z,100221.39
2019-05-23T19:34:06.009Z,100224.44
2019-05-23T19:36:35.636Z,100227.10
2019-05-23T19:39:06.367Z,100223.13
2019-05-23T19:41:38.174Z,100224.60
2019-05-23T19:44:07.971Z,100221.67
2019-05-23T19:46:37.441Z,100212.87
2019-05-23T19:49:06.965Z,100213.90
2019-05-23T19:51:36.414Z,100213.39
2019-05-23T19:54:06.771Z,100216.36
2019-05-23T19:56:37.210Z,100210.91
2019-05-23T19:59:06.925Z,100212.23
2019-05-23T20:01:54.772Z,100210.83
2019-05-23T20:04:30.771Z,100212.98
2019-05-23T20:06:57.310Z,100213.58
2019-05-23T20:09:27.013Z,100213.36
2019-05-23T20:11:57.060Z,100208.77
2019-05-23T20:14:26.534Z,100211.25
2019-05-23T20:16:55.982Z,100210.17
2019-05-23T20:19:25.439Z,100204.08
2019-05-23T20:21:55.182Z,100207.04
2019-05-23T20:24:25.013Z,100206.58
2019-05-23T20:26:54.457Z,100205.14
2019-05-23T20:29:24.014Z,100209.09
2019-05-23T20:31:53.543Z,100203.45
2019-05-23T20:34:23.151Z,100203.11
2019-05-23T20:36:52.620Z,100211.77
2019-05-23T20:39:23.980Z,100212.22
2019-05-23T20:42:09.970Z,100215.05
2019-05-23T20:44:24.693Z,100214.56
2019-05-23T20:46:54.587Z,100213.06
2019-05-23T20:49:27.058Z,100213.80
2019-05-23T20:51:55.468Z,100204.86
2019-05-23T20:54:25.229Z,100202.67
2019-05-23T20:56:54.694Z,100205.30
2019-05-23T20:59:24.391Z,100205.45
2019-05-23T21:01:54.217Z,100204.35
2019-05-23T21:04:23.712Z,100198.24
2019-05-23T21:06:54.961Z,100197.19
2019-05-23T21:09:24.420Z,100198.12
2019-05-23T21:11:53.868Z,100202.90
2019-05-23T21:14:23.336Z,100196.73
2019-05-23T21:16:53.121Z,100204.73
2019-05-23T21:19:22.579Z,100207.52
2019-05-23T21:21:52.041Z,100207.09
2019-05-23T21:24:21.486Z,100194.20
2019-05-23T21:26:50.947Z,100202.70
2019-05-23T21:29:20.474Z,100200.08
2019-05-23T21:31:49.937Z,100204.89
2019-05-23T21:34:22.089Z,100211.05
2019-05-23T21:36:50.689Z,100204.62
2019-05-23T21:39:21.027Z,100199.61
2019-05-23T21:41:50.496Z,100210.45
2019-05-23T21:44:19.951Z,100208.77
2019-05-23T21:46:49.435Z,100209.05
2019-05-23T21:49:18.901Z,100211.16
2019-05-23T21:51:51.606Z,100213.71
2019-05-23T21:54:19.532Z,100213.64
2019-05-23T21:56:48.995Z,100210.99
2019-05-23T21:59:18.440Z,100207.45
2019-05-23T22:01:49.545Z,100208.45
2019-05-23T22:04:23.579Z,100213.64
2019-05-23T22:06:55.815Z,100210.88
2019-05-23T22:09:25.756Z,100209.40
2019-05-23T22:11:55.833Z,100218.02
2019-05-23T22:14:25.469Z,100214.70
2019-05-23T22:16:54.899Z,100217.17
2019-05-23T22:19:24.921Z,100212.80
2019-05-23T22:21:54.391Z,100217.67
2019-05-23T22:24:24.007Z,100210.81
2019-05-23T22:26:53.454Z,100215.05
2019-05-23T22:29:22.888Z,100209.61
2019-05-23T22:31:56.253Z,100212.30
2019-05-23T22:34:34.944Z,100202.82
2019-05-23T22:37:06.173Z,100195.47
2019-05-23T22:39:35.619Z,100196.59
2019-05-23T22:42:06.347Z,100197.38
2019-05-23T22:44:35.794Z,100196.03
2019-05-23T22:47:05.393Z,100196.87
2019-05-23T22:49:34.823Z,100193.98
2019-05-23T22:52:04.622Z,100194.48
2019-05-23T22:54:34.083Z,100197.69
2019-05-23T22:57:03.569Z,100199.31
2019-05-23T22:59:33.007Z,100196.20
2019-05-23T23:02:03.737Z,100195.91
2019-05-23T23:04:33.193Z,100194.00
2019-05-23T23:07:02.945Z,100194.28
2019-05-23T23:09:32.470Z,100193.88
2019-05-23T23:12:02.098Z,100190.13
2019-05-23T23:14:31.548Z,100189.63
2019-05-23T23:17:01.005Z,100191.39
2019-05-23T23:19:30.452Z,100194.62
2019-05-23T23:22:00.066Z,100188.98
2019-05-23T23:24:29.560Z,100193.09
2019-05-23T23:26:59.012Z,100192.95
2019-05-23T23:29:28.466Z,100190.48
2019-05-23T23:31:57.957Z,100188.16
2019-05-23T23:34:27.812Z,100184.05
2019-05-23T23:36:57.432Z,100183.69
2019-05-23T23:39:26.878Z,100185.80
2019-05-23T23:41:56.361Z,100187.52
2019-05-23T23:44:34.273Z,100184.75
2019-05-23T23:47:22.979Z,100185.38
2019-05-23T23:50:10.933Z,100186.02
2019-05-23T23:52:58.483Z,100181.82
2019-05-23T23:55:46.001Z,100190.86
2019-05-23T23:58:15.603Z,100183.61
